Time;durP1;ratioP1;P1;durP2;ratioP2;P2;SDS_P1;SDS_P2;PMS_P1;PMS_P2;Temp;Humidity;BMP_temperature;BMP_pressure;BME280_temperature;BME280_humidity;BME280_pressure;Samples;Min_cycle;Max_cycle;Signal;HPM_P1;HPM_P2
2023/05/20 00:01:04;;;;;;;11.98;10.68;;;;;;;13.48;72.20;99580.09;5028012;28;20322;-76
2023/05/20 00:03:30;;;;;;;10.93;9.82;;;;;;;13.60;72.26;99605.09;5027132;28;20037;-76
2023/05/20 00:05:57;;;;;;;10.82;9.32;;;;;;;13.58;71.77;99595.50;5028455;28;20052;-76
2023/05/20 00:08:24;;;;;;;11.77;10.45;;;;;;;13.58;71.98;99596.34;5027889;28;20048;-76
2023/05/20 00:10:51;;;;;;;12.30;11.00;;;;;;;13.57;71.94;99596.47;5028372;28;20042;-76
2023/05/20 00:13:17;;;;;;;12.25;11.05;;;;;;;13.56;72.09;99603.59;5027781;28;20056;-76
2023/05/20 00:15:46;;;;;;;12.00;10.77;;;;;;;13.54;72.40;99602.84;5027360;28;20104;-75
2023/05/20 00:18:12;;;;;;;13.13;11.73;;;;;;;13.29;72.51;99549.41;5027677;28;20049;-76
2023/05/20 00:20:39;;;;;;;12.18;10.98;;;;;;;13.52;72.61;99590.56;5027906;28;20042;-76
2023/05/20 00:23:06;;;;;;;13.95;12.07;;;;;;;12.96;72.35;99502.66;5027392;28;20109;-76
2023/05/20 00:25:33;;;;;;;13.95;12.45;;;;;;;13.49;72.33;99594.28;5027812;28;20096;-76
2023/05/20 00:27:59;;;;;;;14.45;12.50;;;;;;;13.48;72.71;99592.56;5025685;28;20042;-76
2023/05/20 00:30:26;;;;;;;14.18;12.77;;;;;;;13.47;72.87;99598.84;5027983;28;20056;-76
2023/05/20 00:32:54;;;;;;;14.35;12.95;;;;;;;13.47;72.61;99593.53;5027699;28;20037;-76
2023/05/20 00:35:21;;;;;;;15.27;12.65;;;;;;;13.44;72.64;99594.56;5027842;28;20048;-76
2023/05/20 00:37:48;;;;;;;14.07;12.57;;;;;;;13.43;72.47;99592.84;5027799;28;20061;-76
2023/05/20 00:40:15;;;;;;;12.48;11.27;;;;;;;13.40;72.75;99585.03;5027553;28;20351;-76
2023/05/20 00:42:41;;;;;;;13.02;11.60;;;;;;;13.38;72.65;99588.75;5027226;28;20037;-76
2023/05/20 00:45:09;;;;;;;12.73;11.40;;;;;;;13.03;72.75;99540.38;5027500;28;20209;-76
2023/05/20 00:47:36;;;;;;;12.43;11.00;;;;;;;13.34;72.78;99576.56;5027007;28;20286;-76
2023/05/20 00:50:06;;;;;;;12.02;10.77;;;;;;;13.33;72.57;99583.72;5027054;28;20048;-76
2023/05/20 00:52:33;;;;;;;10.68;9.55;;;;;;;13.31;72.72;99568.78;5026990;28;20034;-76
2023/05/20 00:55:00;;;;;;;10.95;9.38;;;;;;;13.27;72.85;99565.47;5026884;28;20104;-76
2023/05/20 00:57:27;;;;;;;11.27;10.10;;;;;;;13.24;73.05;99576.28;5027041;28;20124;-76
2023/05/20 00:59:54;;;;;;;11.82;10.10;;;;;;;12.39;72.81;99432.69;5026829;28;20046;-76
2023/05/20 01:02:21;;;;;;;11.32;10.13;;;;;;;13.18;73.01;99567.84;5026835;28;20104;-76
2023/05/20 01:04:48;;;;;;;12.68;10.38;;;;;;;13.11;73.13;99560.25;5026697;28;20075;-76
2023/05/20 01:07:17;;;;;;;10.38;9.25;;;;;;;12.48;73.16;99461.34;5026710;28;20119;-76
2023/05/20 01:09:45;;;;;;;10.60;9.50;;;;;;;13.11;72.84;99562.91;5026606;28;20034;-76
2023/05/20 01:12:16;;;;;;;10.88;9.50;;;;;;;13.09;73.17;99559.47;5026623;28;20046;-76
2023/05/20 01:14:49;;;;;;;10.88;9.77;;;;;;;12.19;73.50;99416.16;5026724;28;20248;-76
2023/05/20 01:17:16;;;;;;;11.82;10.55;;;;;;;13.06;73.35;99567.66;5026817;28;20104;-76
2023/05/20 01:19:45;;;;;;;12.77;11.43;;;;;;;13.05;73.35;99565.94;5026521;28;20045;-76
2023/05/20 01:22:13;;;;;;;14.20;12.00;;;;;;;11.61;72.99;99311.66;5026200;28;20372;-76
2023/05/20 01:24:43;;;;;;;12.40;11.15;;;;;;;13.02;73.65;99555.50;5026437;28;20067;-76
2023/05/20 01:27:12;;;;;;;13.30;11.90;;;;;;;13.01;73.42;99555.59;5026382;28;20049;-76
2023/05/20 01:29:39;;;;;;;14.45;12.95;;;;;;;11.49;73.51;99316.75;5026351;28;20104;-76
2023/05/20 01:32:11;;;;;;;14.23;12.82;;;;;;;12.96;73.58;99560.34;5026563;28;20042;-76
2023/05/20 01:34:42;;;;;;;14.90;12.68;;;;;;;12.25;73.58;99445.94;5026240;28;20045;-76
2023/05/20 01:37:10;;;;;;;15.27;13.73;;;;;;;12.45;73.63;99486.31;5025174;28;20372;-76
2023/05/20 01:39:40;;;;;;;16.52;13.98;;;;;;;12.88;73.69;99550.16;5025973;28;20044;-76
2023/05/20 01:42:10;;;;;;;16.70;13.57;;;;;;;12.54;73.95;99497.34;5026193;28;20253;-76
2023/05/20 01:44:37;;;;;;;15.32;13.73;;;;;;;12.92;73.93;99557.00;5025259;28;20034;-76
2023/05/20 01:47:04;;;;;;;15.57;14.05;;;;;;;11.74;73.96;99369.25;5026620;28;20065;-76
2023/05/20 01:49:31;;;;;;;18.90;16.90;;;;;;;12.88;73.88;99557.28;5026347;28;20049;-76
2023/05/20 01:51:58;;;;;;;17.80;16.00;;;;;;;12.84;73.82;99562.81;5026262;28;20200;-76
2023/05/20 01:54:25;;;;;;;17.55;15.75;;;;;;;12.78;73.84;99560.50;5025077;28;20084;-76
2023/05/20 01:56:51;;;;;;;17.00;15.30;;;;;;;12.77;73.84;99557.94;5025230;28;20046;-76
2023/05/20 01:59:19;;;;;;;17.85;15.98;;;;;;;12.77;73.92;99557.94;5025047;28;20041;-76
2023/05/20 02:01:46;;;;;;;18.65;15.73;;;;;;;12.75;74.09;99554.53;5024985;28;20038;-76
2023/05/20 02:04:13;;;;;;;17.33;15.63;;;;;;;12.74;73.80;99552.81;5024965;28;20164;-76
2023/05/20 02:06:40;;;;;;;18.00;15.90;;;;;;;12.74;73.75;99550.16;5026047;28;20301;-76
2023/05/20 02:09:07;;;;;;;22.40;16.02;;;;;;;12.75;73.73;99557.19;5025805;28;20033;-76
2023/05/20 02:11:35;;;;;;;17.27;15.48;;;;;;;12.74;73.80;99563.44;5025299;28;20148;-76
2023/05/20 02:14:01;;;;;;;16.90;15.30;;;;;;;12.72;73.73;99563.53;5025632;28;20037;-76
2023/05/20 02:16:30;;;;;;;17.63;15.85;;;;;;;12.72;73.57;99557.38;5024837;28;20352;-76
2023/05/20 02:18:57;;;;;;;17.75;15.77;;;;;;;12.70;73.82;99561.94;5024776;28;20053;-76
2023/05/20 02:21:24;;;;;;;18.60;16.67;;;;;;;12.26;73.37;99495.50;5025324;28;20324;-76
2023/05/20 02:23:51;;;;;;;17.52;15.65;;;;;;;12.41;73.80;99513.19;5026168;28;20090;-76
2023/05/20 02:26:19;;;;;;;18.27;16.38;;;;;;;12.68;73.61;99558.50;5025562;28;20041;-76
2023/05/20 02:28:49;;;;;;;19.48;17.38;;;;;;;12.65;73.86;99551.56;5025888;28;20068;-76
2023/05/20 02:31:16;;;;;;;18.02;15.77;;;;;;;12.60;73.67;99545.69;5024672;28;20045;-76
2023/05/20 02:33:46;;;;;;;19.15;17.20;;;;;;;11.77;73.94;99416.84;5026022;28;20045;-76
2023/05/20 02:36:12;;;;;;;20.58;17.27;;;;;;;12.60;73.72;99558.13;5024604;28;20045;-76
2023/05/20 02:38:40;;;;;;;18.30;16.45;;;;;;;12.58;73.68;99560.00;5025428;28;20042;-76
2023/05/20 02:41:07;;;;;;;18.08;16.27;;;;;;;12.56;73.54;99553.94;5025733;28;20061;-76
2023/05/20 02:43:35;;;;;;;20.75;18.52;;;;;;;12.53;73.96;99560.28;5025410;28;20046;-76
2023/05/20 02:46:02;;;;;;;20.52;17.55;;;;;;;12.52;73.73;99554.13;5024514;28;20048;-76
2023/05/20 02:48:29;;;;;;;18.48;16.05;;;;;;;12.50;74.18;99552.50;5025544;28;20056;-76
2023/05/20 02:50:59;;;;;;;19.02;17.10;;;;;;;12.47;74.04;99558.84;5025999;28;20049;-76
2023/05/20 02:53:26;;;;;;;19.48;17.42;;;;;;;12.46;74.33;99551.81;5029521;28;20046;-76
2023/05/20 02:55:52;;;;;;;19.13;17.23;;;;;;;12.44;73.93;99556.38;5029389;28;20117;-76
2023/05/20 02:58:25;;;;;;;20.52;18.48;;;;;;;12.45;73.86;99571.38;5028334;28;20076;-76
2023/05/20 03:00:52;;;;;;;20.58;18.45;;;;;;;12.43;73.94;99562.63;5028276;28;20137;-77
2023/05/20 03:03:18;;;;;;;19.50;17.38;;;;;;;12.43;73.86;99567.94;5029354;28;20045;-76
2023/05/20 03:05:45;;;;;;;19.55;16.48;;;;;;;12.41;74.07;99553.03;5028302;28;20073;-77
2023/05/20 03:08:14;;;;;;;19.33;17.40;;;;;;;12.40;74.25;99552.19;5029267;28;20050;-77
2023/05/20 03:10:41;;;;;;;20.27;17.35;;;;;;;12.39;74.07;99561.09;5028917;28;20050;-77
2023/05/20 03:13:10;;;;;;;20.67;18.48;;;;;;;11.98;74.03;99502.38;5029166;28;20282;-76
2023/05/20 03:15:37;;;;;;;21.35;18.45;;;;;;;12.39;73.87;99557.59;5029150;28;20061;-77
2023/05/20 03:18:04;;;;;;;22.10;19.92;;;;;;;12.35;73.61;99562.25;5029338;28;20257;-76
2023/05/20 03:20:31;;;;;;;21.67;18.60;;;;;;;12.34;73.90;99563.19;5029005;28;20238;-76
2023/05/20 03:22:58;;;;;;;20.42;17.98;;;;;;;12.34;73.81;99557.88;5028559;28;20066;-77
2023/05/20 03:25:26;;;;;;;19.65;17.65;;;;;;;12.08;73.82;99516.00;5028674;28;20041;-77
2023/05/20 03:27:53;;;;;;;21.00;18.73;;;;;;;11.41;73.66;99405.72;5028627;28;20045;-77
2023/05/20 03:30:20;;;;;;;22.92;20.42;;;;;;;12.33;73.76;99565.94;5028587;28;20101;-76
2023/05/20 03:32:47;;;;;;;22.08;19.75;;;;;;;12.33;73.90;99571.25;5028682;28;20213;-76
2023/05/20 03:35:14;;;;;;;22.00;18.95;;;;;;;12.29;74.02;99575.88;5028475;28;20092;-77
2023/05/20 03:37:40;;;;;;;21.08;18.88;;;;;;;12.28;73.88;99568.00;5027632;28;20037;-76
2023/05/20 03:40:09;;;;;;;21.35;19.08;;;;;;;11.84;74.14;99500.53;5028365;28;20104;-76
2023/05/20 03:42:37;;;;;;;21.65;19.33;;;;;;;11.98;74.20;99530.72;5028658;28;20034;-76
2023/05/20 03:45:05;;;;;;;20.80;18.60;;;;;;;12.24;73.97;99572.63;5028320;28;20046;-76
2023/05/20 03:47:31;;;;;;;20.63;18.42;;;;;;;12.24;74.27;99571.78;5028570;28;20062;-76
2023/05/20 03:49:58;;;;;;;21.10;18.08;;;;;;;12.25;73.98;99579.66;5027894;28;20050;-76
2023/05/20 03:52:25;;;;;;;20.45;17.33;;;;;;;12.24;74.07;99582.41;5027347;28;20041;-76
2023/05/20 03:54:52;;;;;;;24.30;18.55;;;;;;;12.21;74.15;99594.06;5028046;28;20065;-77
2023/05/20 03:57:19;;;;;;;21.45;18.45;;;;;;;12.22;74.30;99586.97;5028631;28;20056;-76
2023/05/20 03:59:47;;;;;;;21.10;18.88;;;;;;;11.13;74.34;99395.84;5028320;28;20100;-76
2023/05/20 04:02:14;;;;;;;19.98;17.55;;;;;;;12.21;74.11;99575.47;5027921;28;20054;-76
2023/05/20 04:04:41;;;;;;;19.92;17.38;;;;;;;12.22;74.12;99577.19;5027096;28;20057;-77
2023/05/20 04:07:08;;;;;;;21.20;18.10;;;;;;;12.22;74.11;99571.03;5027065;28;20128;-76
2023/05/20 04:09:35;;;;;;;20.92;18.30;;;;;;;12.10;74.19;99546.84;5028022;28;20045;-76
2023/05/20 04:12:02;;;;;;;19.55;17.50;;;;;;;12.24;74.16;99563.81;5028107;28;20304;-76
2023/05/20 04:14:28;;;;;;;20.20;17.35;;;;;;;12.25;73.94;99563.72;5028184;28;20052;-76
2023/05/20 04:16:57;;;;;;;20.88;18.13;;;;;;;12.26;74.17;99567.25;5028153;28;20290;-76
2023/05/20 04:19:27;;;;;;;20.58;18.08;;;;;;;12.26;74.14;99567.25;5028244;28;20172;-74
2023/05/20 04:21:53;;;;;;;24.27;17.52;;;;;;;12.26;74.24;99569.91;5027542;28;20061;-74
2023/05/20 04:24:24;;;;;;;20.35;18.02;;;;;;;12.22;74.31;99579.84;5028099;28;20057;-73
2023/05/20 04:26:51;;;;;;;20.75;17.52;;;;;;;12.18;74.48;99589.81;5027539;28;20029;-74
2023/05/20 04:29:18;;;;;;;20.40;16.75;;;;;;;11.92;74.64;99544.38;5027763;28;20261;-74
2023/05/20 04:31:45;;;;;;;20.25;17.30;;;;;;;12.22;74.40;99595.78;5028023;28;20057;-74
2023/05/20 04:34:18;;;;;;;20.33;17.92;;;;;;;12.24;74.54;99604.53;5027383;28;20050;-73
2023/05/20 04:36:45;;;;;;;19.33;17.35;;;;;;;12.27;74.25;99601.69;5026515;28;20049;-74
2023/05/20 04:39:12;;;;;;;18.55;16.50;;;;;;;12.28;74.20;99610.53;5027576;28;20071;-74
2023/05/20 04:41:39;;;;;;;19.40;16.83;;;;;;;12.27;74.43;99608.81;5027245;28;20045;-74
2023/05/20 04:44:06;;;;;;;20.35;18.25;;;;;;;12.28;74.63;99605.22;5027489;28;20209;-74
2023/05/20 04:46:32;;;;;;;19.42;17.33;;;;;;;12.30;74.44;99605.97;5027169;28;20329;-74
2023/05/20 04:48:59;;;;;;;18.52;16.63;;;;;;;12.07;74.52;99562.97;5027092;28;20048;-74
2023/05/20 04:51:28;;;;;;;19.85;17.50;;;;;;;12.34;74.13;99602.19;5027049;28;20049;-74
2023/05/20 04:53:55;;;;;;;21.20;17.15;;;;;;;12.08;74.58;99566.47;5027271;28;20071;-74
2023/05/20 04:56:22;;;;;;;19.15;16.67;;;;;;;12.36;74.20;99587.00;5025984;28;20045;-74
2023/05/20 04:58:48;;;;;;;20.27;18.30;;;;;;;12.39;74.48;99587.69;5027208;28;20073;-74
2023/05/20 05:01:15;;;;;;;19.85;17.80;;;;;;;12.41;74.26;99583.13;5025950;28;20305;-76
2023/05/20 05:03:42;;;;;;;20.17;17.70;;;;;;;11.70;74.45;99468.59;5027335;28;20042;-76
2023/05/20 05:06:08;;;;;;;17.67;15.75;;;;;;;11.64;74.70;99465.44;5027321;28;20059;-76
2023/05/20 05:08:37;;;;;;;22.08;16.55;;;;;;;12.44;74.46;99598.91;5026733;28;20201;-76
2023/05/20 05:11:05;;;;;;;19.30;17.33;;;;;;;11.15;74.62;99370.09;5027189;28;20037;-76
2023/05/20 05:13:32;;;;;;;21.02;17.70;;;;;;;12.48;74.75;99595.13;5026391;28;20045;-76
2023/05/20 05:15:59;;;;;;;19.70;17.63;;;;;;;12.49;74.57;99593.31;5026458;28;20112;-76
2023/05/20 05:18:26;;;;;;;22.02;16.67;;;;;;;12.52;74.46;99599.31;5026806;28;20309;-76
2023/05/20 05:20:59;;;;;;;19.55;17.52;;;;;;;12.06;74.45;99523.22;5026980;28;20041;-76
2023/05/20 05:23:26;;;;;;;18.02;15.88;;;;;;;12.58;74.15;99599.88;5026288;28;20246;-76
2023/05/20 05:25:54;;;;;;;19.67;16.73;;;;;;;12.59;74.19;99607.78;5025577;28;20092;-76
2023/05/20 05:28:21;;;;;;;19.48;16.95;;;;;;;12.61;74.08;99605.88;5026706;28;20278;-76
2023/05/20 05:30:48;;;;;;;19.20;16.77;;;;;;;12.64;74.19;99607.50;5026404;28;20113;-76
2023/05/20 05:33:15;;;;;;;21.52;18.15;;;;;;;12.64;74.18;99612.81;5026587;28;20297;-76
2023/05/20 05:35:42;;;;;;;18.13;16.25;;;;;;;12.64;74.15;99591.56;5026518;28;20038;-76
2023/05/20 05:38:09;;;;;;;19.92;16.63;;;;;;;12.64;74.06;99600.38;5025822;28;20046;-76
2023/05/20 05:40:36;;;;;;;18.45;16.40;;;;;;;12.67;74.04;99612.63;5026443;28;20251;-76
2023/05/20 05:43:04;;;;;;;18.05;16.08;;;;;;;12.73;74.00;99605.16;5026156;28;20091;-76
2023/05/20 05:45:30;;;;;;;18.67;16.67;;;;;;;12.78;74.15;99596.91;5026310;28;20053;-77
2023/05/20 05:47:57;;;;;;;18.05;16.15;;;;;;;12.84;73.95;99586.75;5025777;28;20054;-76
2023/05/20 05:50:24;;;;;;;18.40;16.52;;;;;;;12.90;73.63;99582.84;5026035;28;20045;-76
2023/05/20 05:52:50;;;;;;;18.75;16.80;;;;;;;12.95;73.88;99575.44;5025992;28;20054;-76
2023/05/20 05:55:18;;;;;;;20.13;17.02;;;;;;;12.99;73.71;99582.28;5026167;28;20053;-76
2023/05/20 05:57:45;;;;;;;17.58;15.10;;;;;;;12.01;73.63;99411.06;5026261;28;20065;-76
2023/05/20 06:00:14;;;;;;;20.52;17.17;;;;;;;13.10;73.68;99584.28;5026176;28;20109;-76
2023/05/20 06:02:41;;;;;;;19.98;16.48;;;;;;;13.19;73.22;99580.19;5026160;28;20073;-76
2023/05/20 06:05:09;;;;;;;17.90;16.00;;;;;;;13.24;73.37;99575.44;5024825;28;20249;-76
2023/05/20 06:07:35;;;;;;;17.55;15.02;;;;;;;13.29;73.31;99576.88;5025696;28;20057;-76
2023/05/20 06:10:02;;;;;;;17.33;15.48;;;;;;;13.34;73.19;99571.25;5026291;28;20038;-76
2023/05/20 06:12:29;;;;;;;17.70;15.85;;;;;;;13.39;73.19;99577.13;5026009;28;20100;-76
2023/05/20 06:14:56;;;;;;;17.33;15.10;;;;;;;13.43;72.78;99570.72;5026225;28;20053;-76
2023/05/20 06:17:24;;;;;;;19.45;17.10;;;;;;;13.46;72.81;99566.03;5024735;28;20225;-76
2023/05/20 06:19:51;;;;;;;17.13;15.32;;;;;;;13.46;72.61;99560.72;5025868;28;20097;-76
2023/05/20 06:22:17;;;;;;;18.02;15.38;;;;;;;13.52;72.90;99563.94;5025729;28;20046;-76
2023/05/20 06:24:44;;;;;;;17.83;14.60;;;;;;;13.57;72.56;99561.84;5024636;28;20168;-76
2023/05/20 06:27:11;;;;;;;17.92;14.52;;;;;;;13.63;72.72;99566.78;5023974;28;20125;-76
2023/05/20 06:29:37;;;;;;;19.70;16.08;;;;;;;13.69;72.33;99575.22;5025379;28;20103;-76
2023/05/20 06:32:05;;;;;;;16.35;14.65;;;;;;;13.76;72.28;99584.53;5025008;28;20037;-76
2023/05/20 06:34:33;;;;;;;18.05;15.45;;;;;;;13.79;71.79;99581.66;5026058;28;20052;-76
2023/05/20 06:37:00;;;;;;;19.30;15.25;;;;;;;13.83;71.83;99574.31;5025446;28;20041;-76
2023/05/20 06:39:26;;;;;;;15.70;14.10;;;;;;;13.89;71.88;99581.06;5025614;28;20080;-76
2023/05/20 06:41:53;;;;;;;17.10;14.68;;;;;;;13.94;72.02;99581.63;5024555;28;20050;-76
2023/05/20 06:44:20;;;;;;;15.75;14.07;;;;;;;14.01;71.55;99583.78;5025352;28;20041;-76
2023/05/20 06:46:46;;;;;;;19.05;15.18;;;;;;;14.07;71.05;99583.38;5025557;28;20049;-76
2023/05/20 06:49:13;;;;;;;16.75;14.50;;;;;;;14.16;71.08;99575.72;5025839;28;20045;-76
2023/05/20 06:51:43;;;;;;;14.18;12.57;;;;;;;13.24;71.02;99397.13;5025332;28;20134;-76
2023/05/20 06:54:09;;;;;;;16.75;14.20;;;;;;;14.39;70.74;99577.72;5025626;28;20201;-76
2023/05/20 06:56:36;;;;;;;16.65;14.93;;;;;;;14.53;70.42;99574.13;5025172;28;20042;-76
2023/05/20 06:59:03;;;;;;;16.10;14.38;;;;;;;14.64;70.33;99560.97;5024950;28;20314;-76
2023/05/20 07:01:29;;;;;;;17.33;15.10;;;;;;;14.63;69.94;99551.25;5024291;28;20073;-76
2023/05/20 07:03:56;;;;;;;15.85;14.10;;;;;;;14.70;69.57;99565.88;5024614;28;20042;-76
2023/05/20 07:06:23;;;;;;;16.95;15.00;;;;;;;14.67;69.28;99566.09;5024377;28;20042;-76
2023/05/20 07:08:51;;;;;;;17.80;15.20;;;;;;;14.71;69.71;99559.59;5025407;28;20102;-76
2023/05/20 07:11:18;;;;;;;17.20;15.10;;;;;;;14.77;69.80;99559.16;5025094;28;20042;-76
2023/05/20 07:13:45;;;;;;;17.05;15.25;;;;;;;14.52;69.44;99497.72;5024061;28;20038;-76
2023/05/20 07:16:11;;;;;;;19.10;15.55;;;;;;;14.88;69.47;99548.59;5024001;28;20046;-76
2023/05/20 07:18:38;;;;;;;18.13;15.13;;;;;;;14.93;69.20;99554.47;5025055;28;20108;-76
2023/05/20 07:21:05;;;;;;;16.00;14.13;;;;;;;14.97;69.05;99553.28;5024149;28;20042;-76
2023/05/20 07:23:32;;;;;;;16.85;15.10;;;;;;;14.97;68.87;99541.75;5024803;28;20072;-76
2023/05/20 07:26:00;;;;;;;17.45;15.40;;;;;;;14.96;69.31;99540.06;5025370;28;20037;-77
2023/05/20 07:28:26;;;;;;;14.85;13.35;;;;;;;14.98;69.13;99540.81;5025447;28;20053;-76
2023/05/20 07:30:53;;;;;;;16.98;15.18;;;;;;;14.00;69.68;99360.91;5024374;28;20088;-76
2023/05/20 07:33:20;;;;;;;15.63;13.98;;;;;;;15.35;69.47;99539.03;5025207;28;20046;-76
2023/05/20 07:35:47;;;;;;;16.08;14.40;;;;;;;15.62;69.15;99530.84;5025152;28;20194;-76
2023/05/20 07:38:15;;;;;;;16.60;14.90;;;;;;;15.20;68.47;99426.19;5027774;28;20050;-76
2023/05/20 07:40:41;;;;;;;17.55;15.55;;;;;;;15.62;67.54;99488.09;5028542;28;20050;-76
2023/05/20 07:43:09;;;;;;;16.50;14.20;;;;;;;16.03;67.33;99535.84;5028361;28;20104;-76
2023/05/20 07:45:36;;;;;;;17.80;14.27;;;;;;;16.20;67.86;99540.78;5028606;28;20048;-76
2023/05/20 07:48:03;;;;;;;18.52;13.20;;;;;;;16.43;67.12;99543.53;5028297;28;20097;-74
2023/05/20 07:50:30;;;;;;;14.77;13.27;;;;;;;16.63;66.74;99538.34;5027197;28;20034;-74
2023/05/20 07:52:57;;;;;;;15.80;13.23;;;;;;;16.81;65.96;99536.09;5028311;28;20208;-74
2023/05/20 07:55:23;;;;;;;16.75;13.38;;;;;;;16.77;65.33;99526.59;5027162;28;20042;-74
2023/05/20 07:57:50;;;;;;;18.70;12.88;;;;;;;16.81;65.47;99508.47;5027552;28;20060;-74
2023/05/20 08:00:19;;;;;;;18.02;14.05;;;;;;;16.49;64.82;99415.50;5028423;28;20053;-74
2023/05/20 08:02:46;;;;;;;16.52;14.00;;;;;;;17.38;64.86;99519.09;5028442;28;20038;-75
2023/05/20 08:05:13;;;;;;;15.05;12.82;;;;;;;17.57;63.77;99518.44;5026993;28;20316;-77
2023/05/20 08:07:40;;;;;;;15.70;14.07;;;;;;;17.59;63.39;99519.19;5028387;28;20068;-77
2023/05/20 08:10:08;;;;;;;16.30;14.60;;;;;;;17.35;63.46;99475.63;5026983;28;20038;-76
2023/05/20 08:12:35;;;;;;;15.02;12.75;;;;;;;17.70;63.71;99519.19;5027991;28;20157;-77
2023/05/20 08:15:02;;;;;;;14.25;12.35;;;;;;;17.65;63.02;99491.91;5027474;28;20053;-76
2023/05/20 08:17:30;;;;;;;15.65;13.40;;;;;;;17.89;63.23;99521.19;5027748;28;20193;-77
2023/05/20 08:19:57;;;;;;;15.40;13.20;;;;;;;17.93;62.96;99514.59;5028076;28;20369;-77
2023/05/20 08:22:25;;;;;;;13.68;12.20;;;;;;;18.02;63.08;99502.25;5027399;28;20060;-77
2023/05/20 08:24:51;;;;;;;14.65;11.70;;;;;;;18.05;62.88;99508.22;5027030;28;20113;-77
2023/05/20 08:27:18;;;;;;;12.77;11.48;;;;;;;17.52;62.79;99406.28;5027424;28;20088;-77
2023/05/20 08:29:45;;;;;;;16.35;11.90;;;;;;;18.14;62.89;99496.72;5027317;28;20246;-77
2023/05/20 08:32:12;;;;;;;14.07;12.50;;;;;;;18.19;62.87;99493.66;5027667;28;20241;-77
2023/05/20 08:34:41;;;;;;;13.30;11.27;;;;;;;18.23;62.27;99490.59;5026439;28;20302;-77
2023/05/20 08:37:08;;;;;;;15.18;11.57;;;;;;;18.27;62.31;99486.66;5026327;28;20154;-77
2023/05/20 08:39:35;;;;;;;13.90;12.40;;;;;;;18.34;62.54;99478.94;5027126;28;20091;-77
2023/05/20 08:42:02;;;;;;;12.32;11.02;;;;;;;18.31;62.54;99454.22;5027473;28;20046;-77
2023/05/20 08:44:29;;;;;;;16.88;11.65;;;;;;;18.58;62.22;99473.34;5027374;28;20061;-74
2023/05/20 08:46:57;;;;;;;12.52;11.35;;;;;;;18.71;61.81;99465.91;5026259;28;20306;-75
2023/05/20 08:49:24;;;;;;;14.10;11.93;;;;;;;18.83;61.35;99469.38;5026725;28;20037;-74
2023/05/20 08:51:52;;;;;;;12.07;10.88;;;;;;;18.84;61.31;99476.44;5026929;28;20112;-74
2023/05/20 08:54:22;;;;;;;12.70;11.10;;;;;;;18.91;61.38;99467.72;5027091;28;20045;-74
2023/05/20 08:56:49;;;;;;;15.65;12.55;;;;;;;19.09;60.78;99467.91;5025835;28;20302;-74
2023/05/20 08:59:18;;;;;;;13.55;12.13;;;;;;;19.22;60.55;99478.44;5027201;28;20058;-74
2023/05/20 09:01:45;;;;;;;12.35;10.68;;;;;;;18.43;60.51;99335.09;5026107;28;20057;-74
2023/05/20 09:04:11;;;;;;;13.45;11.77;;;;;;;19.21;60.20;99468.66;5026860;28;20100;-74
2023/05/20 09:06:47;;;;;;;13.25;11.85;;;;;;;18.00;58.59;99274.47;5025840;28;20068;-74
2023/05/20 09:09:16;;;;;;;13.07;10.85;;;;;;;18.95;60.51;99429.84;5026942;28;20048;-75
2023/05/20 09:11:43;;;;;;;13.05;11.40;;;;;;;19.20;60.77;99458.91;5026558;28;20052;-75
2023/05/20 09:14:10;;;;;;;15.45;12.45;;;;;;;19.14;60.39;99459.47;5027049;28;20277;-75
2023/05/20 09:16:37;;;;;;;12.35;11.05;;;;;;;19.09;60.66;99456.31;5026914;28;20045;-75
2023/05/20 09:19:06;;;;;;;13.82;11.05;;;;;;;19.06;60.42;99451.22;5026512;28;20080;-75
2023/05/20 09:21:33;;;;;;;13.05;11.68;;;;;;;19.06;60.79;99451.22;5026754;28;20077;-75
2023/05/20 09:24:02;;;;;;;12.35;10.95;;;;;;;19.09;60.75;99449.13;5026950;28;20065;-75
2023/05/20 09:26:30;;;;;;;13.15;11.75;;;;;;;18.91;60.43;99419.38;5025482;28;20056;-75
2023/05/20 09:28:57;;;;;;;14.05;12.63;;;;;;;18.38;60.50;99338.19;5025400;28;20048;-75
2023/05/20 09:31:27;;;;;;;12.98;11.43;;;;;;;19.24;60.12;99460.34;5026486;28;20054;-75
2023/05/20 09:33:55;;;;;;;20.10;11.70;;;;;;;18.75;60.22;99365.34;5026520;28;20109;-75
2023/05/20 09:36:23;;;;;;;12.85;11.38;;;;;;;19.41;60.04;99450.78;5025178;28;20034;-75
2023/05/20 09:38:52;;;;;;;12.15;10.85;;;;;;;19.02;59.87;99369.22;5025344;28;20038;-75
2023/05/20 09:41:24;;;;;;;14.93;11.02;;;;;;;19.64;59.42;99446.03;5026138;28;20046;-76
2023/05/20 09:43:53;;;;;;;13.02;11.10;;;;;;;19.51;59.53;99411.34;5026378;28;20064;-75
2023/05/20 09:46:20;;;;;;;12.55;11.30;;;;;;;19.82;59.39;99439.84;5025967;28;20104;-76
2023/05/20 09:48:48;;;;;;;11.52;10.32;;;;;;;19.95;59.27;99444.94;5025115;28;20060;-75
2023/05/20 09:51:16;;;;;;;11.15;9.95;;;;;;;20.05;58.67;99440.41;5026127;28;20335;-75
2023/05/20 09:53:43;;;;;;;13.93;10.65;;;;;;;19.65;58.63;99367.06;5025988;28;20206;-75
2023/05/20 09:56:10;;;;;;;11.13;10.02;;;;;;;20.26;58.42;99436.72;5026432;28;20095;-75
2023/05/20 09:58:39;;;;;;;12.05;10.75;;;;;;;19.96;58.24;99359.72;5025582;28;20046;-75
2023/05/20 10:01:09;;;;;;;11.80;10.18;;;;;;;20.49;57.15;99432.72;5025526;28;20092;-75
2023/05/20 10:03:36;;;;;;;12.75;10.52;;;;;;;20.58;57.58;99425.59;5025507;28;20340;-75
2023/05/20 10:06:25;;;;;;;9.98;8.98;;;;;;;20.44;56.02;99398.16;5025697;28;20061;-75
2023/05/20 10:09:24;;;;;;;10.55;9.45;;;;;;;19.01;55.89;99139.25;5025405;28;20316;-75
2023/05/20 10:12:00;;;;;;;10.57;9.02;;;;;;;20.40;56.04;99350.13;5024967;28;20049;-75
2023/05/20 10:14:43;;;;;;;10.20;9.00;;;;;;;20.73;55.71;99383.72;5024239;28;20060;-75
2023/05/20 10:17:19;;;;;;;11.07;9.13;;;;;;;20.86;55.49;99384.25;5024523;28;20076;-76
2023/05/20 10:19:46;;;;;;;10.05;9.05;;;;;;;20.89;56.63;99375.00;5025355;28;20038;-75
2023/05/20 10:22:13;;;;;;;9.75;8.75;;;;;;;21.20;56.79;99405.22;5025128;28;20124;-75
2023/05/20 10:24:43;;;;;;;13.70;10.07;;;;;;;21.31;56.30;99394.22;5025582;28;20042;-76
2023/05/20 10:27:11;;;;;;;12.77;9.82;;;;;;;20.93;56.12;99309.91;5025554;28;20213;-75
2023/05/20 10:29:46;;;;;;;11.93;8.68;;;;;;;21.43;54.33;99364.19;5025103;28;20034;-74
2023/05/20 10:32:30;;;;;;;10.70;9.38;;;;;;;21.65;53.70;99397.94;5024941;28;20042;-75
2023/05/20 10:35:03;;;;;;;10.27;9.15;;;;;;;21.71;54.47;99397.31;5023884;28;20210;-75
2023/05/20 10:37:32;;;;;;;9.97;7.60;;;;;;;21.82;55.13;99382.78;5024876;28;20056;-75
2023/05/20 10:40:11;;;;;;;11.27;8.30;;;;;;;21.91;53.94;99383.72;5024047;28;20485;-75
2023/05/20 10:42:39;;;;;;;10.32;9.23;;;;;;;21.75;54.74;99336.69;5024848;28;20053;-76
2023/05/20 10:45:07;;;;;;;12.05;10.80;;;;;;;21.63;54.24;99315.50;5025486;28;20073;-75
2023/05/20 10:47:36;;;;;;;10.73;9.63;;;;;;;21.55;53.60;99323.53;5025399;28;20042;-76
2023/05/20 10:50:04;;;;;;;10.88;9.70;;;;;;;21.76;54.83;99369.88;5025189;28;20040;-75
2023/05/20 10:52:34;;;;;;;10.18;9.25;;;;;;;21.17;54.49;99298.56;5025077;28;20038;-75
2023/05/20 10:55:01;;;;;;;10.80;9.63;;;;;;;21.76;54.98;99370.75;5025208;28;20042;-75
2023/05/20 10:57:29;;;;;;;11.23;9.50;;;;;;;21.72;54.73;99365.81;5025385;28;20049;-74
2023/05/20 10:59:56;;;;;;;8.70;7.70;;;;;;;21.71;54.59;99366.81;5025194;28;20105;-75
2023/05/20 11:02:25;;;;;;;10.50;8.80;;;;;;;21.30;54.63;99290.09;5024762;28;20044;-75
2023/05/20 11:04:56;;;;;;;9.38;8.48;;;;;;;21.36;54.46;99303.81;5025167;28;20042;-72
2023/05/20 11:07:27;;;;;;;8.98;7.60;;;;;;;21.55;54.48;99340.53;5025116;28;20034;-74
2023/05/20 11:09:54;;;;;;;8.68;7.78;;;;;;;21.77;55.02;99355.41;5024565;28;20117;-74
2023/05/20 11:12:21;;;;;;;11.95;9.38;;;;;;;21.90;54.55;99352.34;5026089;28;20209;-75
2023/05/20 11:14:49;;;;;;;9.02;8.13;;;;;;;21.97;54.38;99346.16;5029070;28;20042;-75
2023/05/20 11:17:16;;;;;;;8.98;8.07;;;;;;;22.03;53.98;99347.38;5028316;28;20041;-75
2023/05/20 11:19:43;;;;;;;8.07;7.28;;;;;;;22.08;54.26;99348.59;5027726;28;20045;-75
2023/05/20 11:22:11;;;;;;;9.40;8.50;;;;;;;22.09;53.14;99352.13;5028170;28;20065;-75